Apple Creek, Ohio
Current Conditions -  °F | °C
As of 11:04 AM on Thursday 27 Nov 2014 (Local Time) from KBJJ Reporting Station
Light Snow Light Snow  
Wind Chill: 20°   Ceiling: 2100
Heat Index: 30°   Visibility: 4mi
Dew Point: 25°   Wind: 13mph
Humidity: 82%   Direction: 320°NW
Pressure: 30.14"   Gusts: NA
Location:  40.75°N, 81.84°W
Report Text: KBJJ 271604Z AUTO 32011KT 4SM -SN SCT014 BKN021 OVC027 M01/M04 A3014 RMK AO2 P0000 T10111039 TSNO
Loading
Personal Weather Stations






























Interactive Weather Map New forecast layout! Learn more

10-Day Weather Forecast

Advertisements
Track Severe Weather on mobile